sensor_id;sensor_type;location;lat;lon;timestamp;P1;durP1;ratioP1;P2;durP2;ratioP2
65533;SDS011;53640;55.838;37.184;2024-01-30T00:01:16;8.07;;;5.00;;
65533;SDS011;53640;55.838;37.184;2024-01-30T00:03:43;7.90;;;5.43;;
65533;SDS011;53640;55.838;37.184;2024-01-30T00:06:11;8.38;;;5.30;;
65533;SDS011;53640;55.838;37.184;2024-01-30T00:08:38;7.63;;;5.03;;
65533;SDS011;53640;55.838;37.184;2024-01-30T00:11:04;8.95;;;5.40;;
65533;SDS011;53640;55.838;37.184;2024-01-30T00:13:31;6.50;;;4.88;;
65533;SDS011;53640;55.838;37.184;2024-01-30T00:15:57;11.20;;;5.63;;
65533;SDS011;53640;55.838;37.184;2024-01-30T00:18:24;8.38;;;4.82;;
65533;SDS011;53640;55.838;37.184;2024-01-30T00:20:50;7.88;;;4.88;;
65533;SDS011;53640;55.838;37.184;2024-01-30T00:23:18;6.82;;;5.43;;
65533;SDS011;53640;55.838;37.184;2024-01-30T00:25:44;8.90;;;5.35;;
65533;SDS011;53640;55.838;37.184;2024-01-30T00:28:11;7.40;;;4.97;;
65533;SDS011;53640;55.838;37.184;2024-01-30T00:30:37;9.27;;;5.50;;
65533;SDS011;53640;55.838;37.184;2024-01-30T00:33:04;9.48;;;5.55;;
65533;SDS011;53640;55.838;37.184;2024-01-30T00:35:30;8.48;;;5.32;;
65533;SDS011;53640;55.838;37.184;2024-01-30T00:37:57;8.10;;;4.90;;
65533;SDS011;53640;55.838;37.184;2024-01-30T00:40:26;9.27;;;5.35;;
65533;SDS011;53640;55.838;37.184;2024-01-30T00:42:53;8.38;;;5.03;;
65533;SDS011;53640;55.838;37.184;2024-01-30T00:45:19;7.75;;;5.18;;
65533;SDS011;53640;55.838;37.184;2024-01-30T00:47:46;7.97;;;5.03;;
65533;SDS011;53640;55.838;37.184;2024-01-30T00:50:12;8.35;;;5.00;;
65533;SDS011;53640;55.838;37.184;2024-01-30T00:52:39;7.80;;;5.55;;
65533;SDS011;53640;55.838;37.184;2024-01-30T00:55:07;7.05;;;5.05;;
65533;SDS011;53640;55.838;37.184;2024-01-30T00:57:34;7.70;;;5.00;;
65533;SDS011;53640;55.838;37.184;2024-01-30T01:00:01;7.75;;;5.38;;
65533;SDS011;53640;55.838;37.184;2024-01-30T01:02:31;7.45;;;5.25;;
65533;SDS011;53640;55.838;37.184;2024-01-30T01:04:57;6.50;;;4.75;;
65533;SDS011;53640;55.838;37.184;2024-01-30T01:07:24;6.65;;;4.88;;
65533;SDS011;53640;55.838;37.184;2024-01-30T01:09:53;7.43;;;5.25;;
65533;SDS011;53640;55.838;37.184;2024-01-30T01:12:20;8.52;;;5.38;;
65533;SDS011;53640;55.838;37.184;2024-01-30T01:14:48;9.07;;;5.18;;
65533;SDS011;53640;55.838;37.184;2024-01-30T01:17:14;7.95;;;5.32;;
65533;SDS011;53640;55.838;37.184;2024-01-30T01:19:40;9.40;;;5.10;;
65533;SDS011;53640;55.838;37.184;2024-01-30T01:22:07;7.80;;;4.65;;
65533;SDS011;53640;55.838;37.184;2024-01-30T01:24:35;6.72;;;4.72;;
65533;SDS011;53640;55.838;37.184;2024-01-30T01:27:06;7.35;;;5.03;;
65533;SDS011;53640;55.838;37.184;2024-01-30T01:29:32;7.45;;;5.40;;
65533;SDS011;53640;55.838;37.184;2024-01-30T01:31:59;8.20;;;5.57;;
65533;SDS011;53640;55.838;37.184;2024-01-30T01:34:25;9.68;;;5.75;;
65533;SDS011;53640;55.838;37.184;2024-01-30T01:36:52;6.28;;;4.75;;
65533;SDS011;53640;55.838;37.184;2024-01-30T01:39:22;9.50;;;4.78;;
65533;SDS011;53640;55.838;37.184;2024-01-30T01:41:51;9.27;;;5.28;;
65533;SDS011;53640;55.838;37.184;2024-01-30T01:44:18;6.55;;;4.57;;
65533;SDS011;53640;55.838;37.184;2024-01-30T01:46:45;6.97;;;4.90;;
65533;SDS011;53640;55.838;37.184;2024-01-30T01:49:11;7.32;;;5.00;;
65533;SDS011;53640;55.838;37.184;2024-01-30T01:51:39;8.05;;;4.95;;
65533;SDS011;53640;55.838;37.184;2024-01-30T01:54:09;7.45;;;4.75;;
65533;SDS011;53640;55.838;37.184;2024-01-30T01:56:36;8.75;;;5.03;;
65533;SDS011;53640;55.838;37.184;2024-01-30T01:59:05;7.00;;;5.10;;
65533;SDS011;53640;55.838;37.184;2024-01-30T02:01:35;6.30;;;4.80;;
65533;SDS011;53640;55.838;37.184;2024-01-30T02:04:06;6.05;;;4.43;;
65533;SDS011;53640;55.838;37.184;2024-01-30T02:06:34;6.68;;;4.80;;
65533;SDS011;53640;55.838;37.184;2024-01-30T02:09:01;7.00;;;4.80;;
65533;SDS011;53640;55.838;37.184;2024-01-30T02:11:28;5.95;;;4.15;;
65533;SDS011;53640;55.838;37.184;2024-01-30T02:13:55;7.35;;;4.90;;
65533;SDS011;53640;55.838;37.184;2024-01-30T02:16:21;8.10;;;4.97;;
65533;SDS011;53640;55.838;37.184;2024-01-30T02:18:48;6.35;;;4.35;;
65533;SDS011;53640;55.838;37.184;2024-01-30T02:21:18;7.15;;;4.85;;
65533;SDS011;53640;55.838;37.184;2024-01-30T02:23:46;6.40;;;4.13;;
65533;SDS011;53640;55.838;37.184;2024-01-30T02:26:13;9.10;;;5.40;;
65533;SDS011;53640;55.838;37.184;2024-01-30T02:28:40;5.35;;;4.40;;
65533;SDS011;53640;55.838;37.184;2024-01-30T02:31:06;6.00;;;4.38;;
65533;SDS011;53640;55.838;37.184;2024-01-30T02:33:33;6.25;;;4.47;;
65533;SDS011;53640;55.838;37.184;2024-01-30T02:35:59;6.07;;;4.32;;
65533;SDS011;53640;55.838;37.184;2024-01-30T02:38:26;8.20;;;4.95;;
65533;SDS011;53640;55.838;37.184;2024-01-30T02:40:52;5.70;;;4.53;;
65533;SDS011;53640;55.838;37.184;2024-01-30T02:43:19;7.50;;;5.32;;
65533;SDS011;53640;55.838;37.184;2024-01-30T02:45:46;6.60;;;4.68;;
65533;SDS011;53640;55.838;37.184;2024-01-30T02:48:13;6.18;;;4.15;;
65533;SDS011;53640;55.838;37.184;2024-01-30T02:50:40;6.15;;;4.75;;
65533;SDS011;53640;55.838;37.184;2024-01-30T02:53:06;5.78;;;4.40;;
65533;SDS011;53640;55.838;37.184;2024-01-30T02:55:33;7.05;;;4.70;;
65533;SDS011;53640;55.838;37.184;2024-01-30T02:57:59;5.80;;;4.35;;
65533;SDS011;53640;55.838;37.184;2024-01-30T03:00:26;6.43;;;4.55;;
65533;SDS011;53640;55.838;37.184;2024-01-30T03:02:52;8.57;;;5.50;;
65533;SDS011;53640;55.838;37.184;2024-01-30T03:05:19;5.93;;;4.50;;
65533;SDS011;53640;55.838;37.184;2024-01-30T03:07:45;6.93;;;4.82;;
65533;SDS011;53640;55.838;37.184;2024-01-30T03:10:12;10.07;;;4.93;;
65533;SDS011;53640;55.838;37.184;2024-01-30T03:12:38;6.55;;;4.70;;
65533;SDS011;53640;55.838;37.184;2024-01-30T03:15:05;8.32;;;5.07;;
65533;SDS011;53640;55.838;37.184;2024-01-30T03:17:32;6.20;;;4.47;;
65533;SDS011;53640;55.838;37.184;2024-01-30T03:19:58;6.82;;;4.80;;
65533;SDS011;53640;55.838;37.184;2024-01-30T03:22:25;7.97;;;4.75;;
65533;SDS011;53640;55.838;37.184;2024-01-30T03:24:51;9.75;;;5.10;;
65533;SDS011;53640;55.838;37.184;2024-01-30T03:27:18;5.97;;;4.93;;
65533;SDS011;53640;55.838;37.184;2024-01-30T03:29:44;7.28;;;5.00;;
65533;SDS011;53640;55.838;37.184;2024-01-30T03:32:10;7.75;;;5.00;;
65533;SDS011;53640;55.838;37.184;2024-01-30T03:34:37;6.53;;;4.25;;
65533;SDS011;53640;55.838;37.184;2024-01-30T03:37:03;6.80;;;4.90;;
65533;SDS011;53640;55.838;37.184;2024-01-30T03:39:30;5.68;;;4.70;;
65533;SDS011;53640;55.838;37.184;2024-01-30T03:41:56;7.25;;;5.28;;
65533;SDS011;53640;55.838;37.184;2024-01-30T03:44:23;8.63;;;4.80;;
65533;SDS011;53640;55.838;37.184;2024-01-30T03:46:50;6.47;;;4.85;;
65533;SDS011;53640;55.838;37.184;2024-01-30T03:49:16;8.48;;;5.10;;
65533;SDS011;53640;55.838;37.184;2024-01-30T03:51:42;7.63;;;5.60;;
65533;SDS011;53640;55.838;37.184;2024-01-30T03:54:09;7.82;;;5.50;;
65533;SDS011;53640;55.838;37.184;2024-01-30T03:56:35;7.65;;;5.50;;
65533;SDS011;53640;55.838;37.184;2024-01-30T03:59:02;9.90;;;5.93;;
65533;SDS011;53640;55.838;37.184;2024-01-30T04:01:29;9.07;;;5.75;;
65533;SDS011;53640;55.838;37.184;2024-01-30T04:03:56;7.80;;;4.97;;
65533;SDS011;53640;55.838;37.184;2024-01-30T04:06:22;6.20;;;5.40;;
65533;SDS011;53640;55.838;37.184;2024-01-30T04:08:49;7.43;;;5.88;;
65533;SDS011;53640;55.838;37.184;2024-01-30T04:11:17;5.78;;;4.90;;
65533;SDS011;53640;55.838;37.184;2024-01-30T04:13:46;9.85;;;5.88;;
65533;SDS011;53640;55.838;37.184;2024-01-30T04:16:20;8.20;;;5.60;;
65533;SDS011;53640;55.838;37.184;2024-01-30T04:18:48;6.95;;;5.20;;
65533;SDS011;53640;55.838;37.184;2024-01-30T04:21:14;7.55;;;5.50;;
65533;SDS011;53640;55.838;37.184;2024-01-30T04:23:41;8.15;;;5.82;;
65533;SDS011;53640;55.838;37.184;2024-01-30T04:26:10;11.23;;;5.82;;
65533;SDS011;53640;55.838;37.184;2024-01-30T04:28:44;9.40;;;5.68;;
65533;SDS011;53640;55.838;37.184;2024-01-30T04:31:11;9.60;;;5.68;;
65533;SDS011;53640;55.838;37.184;2024-01-30T04:33:37;8.18;;;5.53;;
65533;SDS011;53640;55.838;37.184;2024-01-30T04:36:08;8.90;;;5.57;;
65533;SDS011;53640;55.838;37.184;2024-01-30T04:38:36;10.25;;;5.70;;
65533;SDS011;53640;55.838;37.184;2024-01-30T04:41:03;11.68;;;6.15;;
65533;SDS011;53640;55.838;37.184;2024-01-30T04:43:30;10.43;;;5.50;;
65533;SDS011;53640;55.838;37.184;2024-01-30T04:45:59;10.50;;;6.70;;
65533;SDS011;53640;55.838;37.184;2024-01-30T04:48:26;10.90;;;5.75;;
65533;SDS011;53640;55.838;37.184;2024-01-30T04:50:53;7.40;;;5.57;;
65533;SDS011;53640;55.838;37.184;2024-01-30T04:53:21;8.55;;;5.63;;
65533;SDS011;53640;55.838;37.184;2024-01-30T04:55:47;9.95;;;6.32;;
65533;SDS011;53640;55.838;37.184;2024-01-30T04:58:13;9.45;;;6.13;;
65533;SDS011;53640;55.838;37.184;2024-01-30T05:00:40;9.68;;;6.10;;
65533;SDS011;53640;55.838;37.184;2024-01-30T05:03:06;8.27;;;5.95;;
65533;SDS011;53640;55.838;37.184;2024-01-30T05:05:33;11.20;;;6.47;;
65533;SDS011;53640;55.838;37.184;2024-01-30T05:07:59;8.90;;;5.72;;
65533;SDS011;53640;55.838;37.184;2024-01-30T05:10:26;13.45;;;6.40;;
65533;SDS011;53640;55.838;37.184;2024-01-30T05:12:54;11.43;;;6.20;;
65533;SDS011;53640;55.838;37.184;2024-01-30T05:15:21;9.25;;;6.18;;
65533;SDS011;53640;55.838;37.184;2024-01-30T05:17:48;8.32;;;6.28;;
65533;SDS011;53640;55.838;37.184;2024-01-30T05:20:16;11.45;;;6.60;;
65533;SDS011;53640;55.838;37.184;2024-01-30T05:22:43;12.55;;;6.32;;
65533;SDS011;53640;55.838;37.184;2024-01-30T05:25:12;11.55;;;7.03;;
65533;SDS011;53640;55.838;37.184;2024-01-30T05:27:39;10.68;;;7.65;;
65533;SDS011;53640;55.838;37.184;2024-01-30T05:30:06;12.13;;;6.78;;
65533;SDS011;53640;55.838;37.184;2024-01-30T05:32:33;14.13;;;7.28;;
65533;SDS011;53640;55.838;37.184;2024-01-30T05:34:59;12.32;;;7.15;;
65533;SDS011;53640;55.838;37.184;2024-01-30T05:37:29;11.05;;;6.97;;
65533;SDS011;53640;55.838;37.184;2024-01-30T05:39:56;10.88;;;6.43;;
65533;SDS011;53640;55.838;37.184;2024-01-30T05:42:23;12.55;;;6.95;;
65533;SDS011;53640;55.838;37.184;2024-01-30T05:44:50;11.75;;;7.18;;
65533;SDS011;53640;55.838;37.184;2024-01-30T05:47:16;13.70;;;7.78;;
65533;SDS011;53640;55.838;37.184;2024-01-30T05:49:43;11.45;;;7.15;;
65533;SDS011;53640;55.838;37.184;2024-01-30T05:52:09;14.70;;;8.52;;
65533;SDS011;53640;55.838;37.184;2024-01-30T05:54:36;13.30;;;7.18;;
65533;SDS011;53640;55.838;37.184;2024-01-30T05:57:02;17.35;;;9.18;;
65533;SDS011;53640;55.838;37.184;2024-01-30T05:59:30;17.00;;;8.73;;
65533;SDS011;53640;55.838;37.184;2024-01-30T06:01:57;13.80;;;9.27;;
65533;SDS011;53640;55.838;37.184;2024-01-30T06:04:27;26.13;;;14.90;;
65533;SDS011;53640;55.838;37.184;2024-01-30T06:06:55;35.13;;;18.98;;
65533;SDS011;53640;55.838;37.184;2024-01-30T06:09:21;32.35;;;15.88;;
65533;SDS011;53640;55.838;37.184;2024-01-30T06:11:48;38.22;;;18.73;;
65533;SDS011;53640;55.838;37.184;2024-01-30T06:14:14;19.15;;;11.10;;
65533;SDS011;53640;55.838;37.184;2024-01-30T06:16:41;25.27;;;12.52;;
65533;SDS011;53640;55.838;37.184;2024-01-30T06:19:08;23.50;;;11.32;;
65533;SDS011;53640;55.838;37.184;2024-01-30T06:21:35;19.80;;;9.25;;
65533;SDS011;53640;55.838;37.184;2024-01-30T06:24:04;14.38;;;8.13;;
65533;SDS011;53640;55.838;37.184;2024-01-30T06:26:31;13.32;;;7.65;;
65533;SDS011;53640;55.838;37.184;2024-01-30T06:28:58;17.23;;;7.78;;
65533;SDS011;53640;55.838;37.184;2024-01-30T06:31:24;14.70;;;7.50;;
65533;SDS011;53640;55.838;37.184;2024-01-30T06:33:51;10.98;;;7.40;;
65533;SDS011;53640;55.838;37.184;2024-01-30T06:36:20;13.68;;;7.75;;
65533;SDS011;53640;55.838;37.184;2024-01-30T06:38:49;13.32;;;7.20;;
65533;SDS011;53640;55.838;37.184;2024-01-30T06:41:15;14.30;;;7.82;;
65533;SDS011;53640;55.838;37.184;2024-01-30T06:43:42;14.07;;;7.82;;
65533;SDS011;53640;55.838;37.184;2024-01-30T06:46:11;13.93;;;8.43;;
65533;SDS011;53640;55.838;37.184;2024-01-30T06:48:38;14.38;;;8.05;;
65533;SDS011;53640;55.838;37.184;2024-01-30T06:51:07;12.93;;;7.80;;
65533;SDS011;53640;55.838;37.184;2024-01-30T06:53:33;12.05;;;7.47;;
65533;SDS011;53640;55.838;37.184;2024-01-30T06:56:00;14.45;;;7.65;;
65533;SDS011;53640;55.838;37.184;2024-01-30T06:58:27;13.98;;;7.75;;
65533;SDS011;53640;55.838;37.184;2024-01-30T07:00:54;15.77;;;8.18;;
65533;SDS011;53640;55.838;37.184;2024-01-30T07:03:20;13.52;;;7.90;;
65533;SDS011;53640;55.838;37.184;2024-01-30T07:05:47;15.10;;;8.30;;
65533;SDS011;53640;55.838;37.184;2024-01-30T07:08:15;15.05;;;8.15;;
65533;SDS011;53640;55.838;37.184;2024-01-30T07:10:44;15.82;;;8.23;;
65533;SDS011;53640;55.838;37.184;2024-01-30T07:13:11;17.60;;;8.18;;
65533;SDS011;53640;55.838;37.184;2024-01-30T07:15:41;14.05;;;7.78;;
65533;SDS011;53640;55.838;37.184;2024-01-30T07:18:14;14.43;;;7.90;;
65533;SDS011;53640;55.838;37.184;2024-01-30T07:20:41;12.40;;;7.72;;
65533;SDS011;53640;55.838;37.184;2024-01-30T07:23:13;15.25;;;8.07;;
65533;SDS011;53640;55.838;37.184;2024-01-30T07:25:42;21.05;;;9.40;;
65533;SDS011;53640;55.838;37.184;2024-01-30T07:28:09;15.43;;;8.98;;
65533;SDS011;53640;55.838;37.184;2024-01-30T07:30:48;17.83;;;9.30;;
65533;SDS011;53640;55.838;37.184;2024-01-30T07:33:17;14.25;;;8.25;;
65533;SDS011;53640;55.838;37.184;2024-01-30T07:35:44;15.77;;;8.85;;
65533;SDS011;53640;55.838;37.184;2024-01-30T07:38:12;14.38;;;8.73;;
65533;SDS011;53640;55.838;37.184;2024-01-30T07:40:38;16.75;;;8.68;;
65533;SDS011;53640;55.838;37.184;2024-01-30T07:43:05;18.55;;;9.50;;
65533;SDS011;53640;55.838;37.184;2024-01-30T07:45:31;17.58;;;9.68;;
65533;SDS011;53640;55.838;37.184;2024-01-30T07:47:59;16.33;;;8.88;;
65533;SDS011;53640;55.838;37.184;2024-01-30T07:50:26;15.65;;;8.75;;
65533;SDS011;53640;55.838;37.184;2024-01-30T07:52:53;15.15;;;8.60;;
65533;SDS011;53640;55.838;37.184;2024-01-30T07:55:32;17.40;;;8.95;;
65533;SDS011;53640;55.838;37.184;2024-01-30T07:58:18;16.60;;;8.85;;
65533;SDS011;53640;55.838;37.184;2024-01-30T08:00:45;16.25;;;8.60;;
65533;SDS011;53640;55.838;37.184;2024-01-30T08:03:14;21.60;;;10.38;;
65533;SDS011;53640;55.838;37.184;2024-01-30T08:05:49;16.52;;;9.00;;
65533;SDS011;53640;55.838;37.184;2024-01-30T08:08:31;14.65;;;8.70;;
65533;SDS011;53640;55.838;37.184;2024-01-30T08:11:01;14.27;;;8.20;;
65533;SDS011;53640;55.838;37.184;2024-01-30T08:13:33;20.30;;;9.00;;
65533;SDS011;53640;55.838;37.184;2024-01-30T08:16:40;18.13;;;9.02;;
65533;SDS011;53640;55.838;37.184;2024-01-30T08:19:12;19.17;;;9.55;;
65533;SDS011;53640;55.838;37.184;2024-01-30T08:21:43;14.73;;;9.05;;
65533;SDS011;53640;55.838;37.184;2024-01-30T08:24:17;16.48;;;9.90;;
65533;SDS011;53640;55.838;37.184;2024-01-30T08:26:54;16.20;;;9.40;;
65533;SDS011;53640;55.838;37.184;2024-01-30T08:29:23;17.90;;;9.07;;
65533;SDS011;53640;55.838;37.184;2024-01-30T08:31:49;17.80;;;9.50;;
65533;SDS011;53640;55.838;37.184;2024-01-30T08:34:22;17.92;;;9.43;;
65533;SDS011;53640;55.838;37.184;2024-01-30T08:37:02;17.50;;;8.80;;
65533;SDS011;53640;55.838;37.184;2024-01-30T08:40:02;17.33;;;9.07;;
65533;SDS011;53640;55.838;37.184;2024-01-30T08:51:09;14.65;;;8.95;;
65533;SDS011;53640;55.838;37.184;2024-01-30T08:55:43;19.38;;;9.15;;
65533;SDS011;53640;55.838;37.184;2024-01-30T08:59:46;17.38;;;8.88;;
65533;SDS011;53640;55.838;37.184;2024-01-30T09:06:10;20.08;;;9.60;;
65533;SDS011;53640;55.838;37.184;2024-01-30T09:08:37;16.10;;;9.50;;
65533;SDS011;53640;55.838;37.184;2024-01-30T09:11:17;16.50;;;9.23;;
65533;SDS011;53640;55.838;37.184;2024-01-30T09:13:58;15.85;;;8.90;;
65533;SDS011;53640;55.838;37.184;2024-01-30T09:16:46;12.88;;;8.10;;
65533;SDS011;53640;55.838;37.184;2024-01-30T09:25:02;17.98;;;8.93;;
65533;SDS011;53640;55.838;37.184;2024-01-30T09:27:34;18.10;;;9.32;;
65533;SDS011;53640;55.838;37.184;2024-01-30T09:30:08;21.48;;;9.55;;
65533;SDS011;53640;55.838;37.184;2024-01-30T09:32:39;17.15;;;9.57;;
65533;SDS011;53640;55.838;37.184;2024-01-30T09:35:10;17.33;;;9.88;;
65533;SDS011;53640;55.838;37.184;2024-01-30T09:37:50;18.75;;;9.35;;
65533;SDS011;53640;55.838;37.184;2024-01-30T09:40:54;13.73;;;8.68;;
65533;SDS011;53640;55.838;37.184;2024-01-30T09:43:26;16.88;;;9.25;;
65533;SDS011;53640;55.838;37.184;2024-01-30T09:46:08;19.65;;;9.32;;
65533;SDS011;53640;55.838;37.184;2024-01-30T09:53:08;17.42;;;10.45;;
65533;SDS011;53640;55.838;37.184;2024-01-30T09:55:35;19.10;;;9.80;;
65533;SDS011;53640;55.838;37.184;2024-01-30T09:58:03;19.58;;;9.73;;
65533;SDS011;53640;55.838;37.184;2024-01-30T10:00:29;22.65;;;9.88;;
65533;SDS011;53640;55.838;37.184;2024-01-30T10:02:56;17.45;;;9.55;;
65533;SDS011;53640;55.838;37.184;2024-01-30T10:05:23;15.60;;;9.60;;
65533;SDS011;53640;55.838;37.184;2024-01-30T10:07:56;17.77;;;9.68;;
65533;SDS011;53640;55.838;37.184;2024-01-30T10:10:25;15.73;;;9.18;;
65533;SDS011;53640;55.838;37.184;2024-01-30T10:12:54;18.08;;;9.30;;
65533;SDS011;53640;55.838;37.184;2024-01-30T10:15:21;15.32;;;8.23;;
65533;SDS011;53640;55.838;37.184;2024-01-30T10:17:49;16.05;;;8.90;;
65533;SDS011;53640;55.838;37.184;2024-01-30T10:20:15;15.60;;;8.43;;
65533;SDS011;53640;55.838;37.184;2024-01-30T10:22:43;16.15;;;9.05;;
65533;SDS011;53640;55.838;37.184;2024-01-30T10:25:11;16.23;;;9.27;;
65533;SDS011;53640;55.838;37.184;2024-01-30T10:27:41;13.90;;;8.63;;
65533;SDS011;53640;55.838;37.184;2024-01-30T10:30:09;18.02;;;9.43;;
65533;SDS011;53640;55.838;37.184;2024-01-30T10:32:36;17.42;;;9.20;;
65533;SDS011;53640;55.838;37.184;2024-01-30T10:35:02;23.17;;;9.80;;
65533;SDS011;53640;55.838;37.184;2024-01-30T10:37:30;18.00;;;8.32;;
65533;SDS011;53640;55.838;37.184;2024-01-30T10:40:01;16.90;;;8.45;;
65533;SDS011;53640;55.838;37.184;2024-01-30T10:42:35;15.10;;;8.00;;
65533;SDS011;53640;55.838;37.184;2024-01-30T10:45:11;14.65;;;8.55;;
65533;SDS011;53640;55.838;37.184;2024-01-30T10:48:00;16.15;;;8.90;;
65533;SDS011;53640;55.838;37.184;2024-01-30T10:50:31;17.48;;;8.80;;
65533;SDS011;53640;55.838;37.184;2024-01-30T10:53:03;15.45;;;8.45;;
65533;SDS011;53640;55.838;37.184;2024-01-30T10:55:36;21.75;;;9.00;;
65533;SDS011;53640;55.838;37.184;2024-01-30T10:58:05;17.02;;;8.85;;
65533;SDS011;53640;55.838;37.184;2024-01-30T11:00:37;17.13;;;9.05;;
65533;SDS011;53640;55.838;37.184;2024-01-30T11:03:05;14.43;;;8.48;;
65533;SDS011;53640;55.838;37.184;2024-01-30T11:05:33;16.50;;;7.80;;
65533;SDS011;53640;55.838;37.184;2024-01-30T11:08:11;13.75;;;8.38;;
65533;SDS011;53640;55.838;37.184;2024-01-30T11:10:48;19.23;;;9.10;;
65533;SDS011;53640;55.838;37.184;2024-01-30T11:13:15;14.77;;;8.00;;
65533;SDS011;53640;55.838;37.184;2024-01-30T11:15:42;14.38;;;8.27;;
65533;SDS011;53640;55.838;37.184;2024-01-30T11:18:11;13.02;;;7.85;;
65533;SDS011;53640;55.838;37.184;2024-01-30T11:20:48;15.45;;;8.50;;
65533;SDS011;53640;55.838;37.184;2024-01-30T11:23:21;15.48;;;8.80;;
65533;SDS011;53640;55.838;37.184;2024-01-30T11:26:01;15.33;;;8.40;;
65533;SDS011;53640;55.838;37.184;2024-01-30T11:28:33;15.07;;;8.27;;
65533;SDS011;53640;55.838;37.184;2024-01-30T11:31:12;20.48;;;9.68;;
65533;SDS011;53640;55.838;37.184;2024-01-30T11:33:46;15.52;;;8.38;;
65533;SDS011;53640;55.838;37.184;2024-01-30T11:36:30;14.15;;;8.70;;
65533;SDS011;53640;55.838;37.184;2024-01-30T11:39:26;16.05;;;8.38;;
65533;SDS011;53640;55.838;37.184;2024-01-30T11:41:55;17.45;;;8.40;;
65533;SDS011;53640;55.838;37.184;2024-01-30T11:44:38;16.70;;;9.07;;
65533;SDS011;53640;55.838;37.184;2024-01-30T11:47:34;16.33;;;8.95;;
65533;SDS011;53640;55.838;37.184;2024-01-30T11:50:10;15.98;;;8.95;;
65533;SDS011;53640;55.838;37.184;2024-01-30T11:52:36;19.27;;;9.10;;
65533;SDS011;53640;55.838;37.184;2024-01-30T11:55:13;13.00;;;8.60;;
65533;SDS011;53640;55.838;37.184;2024-01-30T11:57:40;16.10;;;8.25;;
65533;SDS011;53640;55.838;37.184;2024-01-30T12:00:17;18.67;;;8.90;;
65533;SDS011;53640;55.838;37.184;2024-01-30T12:02:48;15.05;;;8.07;;
65533;SDS011;53640;55.838;37.184;2024-01-30T12:05:25;15.55;;;8.50;;
65533;SDS011;53640;55.838;37.184;2024-01-30T12:07:57;14.53;;;9.00;;
65533;SDS011;53640;55.838;37.184;2024-01-30T12:10:30;21.65;;;8.80;;
65533;SDS011;53640;55.838;37.184;2024-01-30T12:12:58;15.05;;;9.02;;
65533;SDS011;53640;55.838;37.184;2024-01-30T12:15:31;15.82;;;8.52;;
65533;SDS011;53640;55.838;37.184;2024-01-30T12:18:04;19.33;;;9.65;;
65533;SDS011;53640;55.838;37.184;2024-01-30T12:20:37;15.52;;;8.70;;
65533;SDS011;53640;55.838;37.184;2024-01-30T12:23:04;16.83;;;8.85;;
65533;SDS011;53640;55.838;37.184;2024-01-30T12:25:30;18.58;;;9.32;;
65533;SDS011;53640;55.838;37.184;2024-01-30T12:27:57;18.45;;;8.57;;
65533;SDS011;53640;55.838;37.184;2024-01-30T12:30:24;12.52;;;8.15;;
65533;SDS011;53640;55.838;37.184;2024-01-30T12:32:52;15.23;;;9.25;;
65533;SDS011;53640;55.838;37.184;2024-01-30T12:35:20;16.77;;;8.50;;
65533;SDS011;53640;55.838;37.184;2024-01-30T12:37:49;15.63;;;9.15;;
65533;SDS011;53640;55.838;37.184;2024-01-30T12:40:17;17.90;;;8.63;;
65533;SDS011;53640;55.838;37.184;2024-01-30T12:42:48;14.07;;;8.55;;
65533;SDS011;53640;55.838;37.184;2024-01-30T12:45:18;16.40;;;8.95;;
65533;SDS011;53640;55.838;37.184;2024-01-30T12:47:48;17.83;;;9.25;;
65533;SDS011;53640;55.838;37.184;2024-01-30T12:50:14;19.25;;;10.02;;
65533;SDS011;53640;55.838;37.184;2024-01-30T12:52:44;22.85;;;11.52;;
65533;SDS011;53640;55.838;37.184;2024-01-30T12:55:11;21.38;;;11.18;;
65533;SDS011;53640;55.838;37.184;2024-01-30T12:57:38;14.65;;;9.30;;
65533;SDS011;53640;55.838;37.184;2024-01-30T13:00:05;24.33;;;11.30;;
65533;SDS011;53640;55.838;37.184;2024-01-30T13:02:34;20.38;;;11.52;;
65533;SDS011;53640;55.838;37.184;2024-01-30T13:05:15;21.05;;;10.95;;
65533;SDS011;53640;55.838;37.184;2024-01-30T13:07:42;21.10;;;12.30;;
65533;SDS011;53640;55.838;37.184;2024-01-30T13:10:12;22.15;;;11.18;;
65533;SDS011;53640;55.838;37.184;2024-01-30T13:12:39;19.75;;;10.95;;
65533;SDS011;53640;55.838;37.184;2024-01-30T13:15:06;17.02;;;9.75;;
65533;SDS011;53640;55.838;37.184;2024-01-30T13:17:36;18.25;;;9.55;;
65533;SDS011;53640;55.838;37.184;2024-01-30T13:20:11;16.33;;;9.88;;
65533;SDS011;53640;55.838;37.184;2024-01-30T13:22:43;15.88;;;9.98;;
65533;SDS011;53640;55.838;37.184;2024-01-30T13:25:09;16.40;;;9.85;;
65533;SDS011;53640;55.838;37.184;2024-01-30T13:27:40;20.10;;;10.10;;
65533;SDS011;53640;55.838;37.184;2024-01-30T13:30:07;19.85;;;10.30;;
65533;SDS011;53640;55.838;37.184;2024-01-30T13:32:35;18.35;;;9.43;;
65533;SDS011;53640;55.838;37.184;2024-01-30T13:35:03;18.23;;;10.73;;
65533;SDS011;53640;55.838;37.184;2024-01-30T13:37:31;21.40;;;11.02;;
65533;SDS011;53640;55.838;37.184;2024-01-30T13:39:58;21.27;;;10.35;;
65533;SDS011;53640;55.838;37.184;2024-01-30T13:42:30;19.63;;;10.90;;
65533;SDS011;53640;55.838;37.184;2024-01-30T13:44:56;19.75;;;9.88;;
65533;SDS011;53640;55.838;37.184;2024-01-30T13:47:23;16.27;;;9.68;;
65533;SDS011;53640;55.838;37.184;2024-01-30T13:49:51;23.75;;;10.40;;
65533;SDS011;53640;55.838;37.184;2024-01-30T13:52:18;19.42;;;10.38;;
65533;SDS011;53640;55.838;37.184;2024-01-30T13:54:48;21.80;;;11.50;;
65533;SDS011;53640;55.838;37.184;2024-01-30T13:57:16;20.20;;;10.77;;
65533;SDS011;53640;55.838;37.184;2024-01-30T13:59:42;22.20;;;11.23;;
65533;SDS011;53640;55.838;37.184;2024-01-30T14:02:09;18.08;;;10.40;;
65533;SDS011;53640;55.838;37.184;2024-01-30T14:04:36;20.05;;;10.15;;
65533;SDS011;53640;55.838;37.184;2024-01-30T14:07:03;17.73;;;9.38;;
65533;SDS011;53640;55.838;37.184;2024-01-30T14:09:32;22.65;;;9.90;;
65533;SDS011;53640;55.838;37.184;2024-01-30T14:12:03;18.17;;;10.02;;
65533;SDS011;53640;55.838;37.184;2024-01-30T14:14:32;19.73;;;10.15;;
65533;SDS011;53640;55.838;37.184;2024-01-30T14:16:58;17.73;;;9.95;;
65533;SDS011;53640;55.838;37.184;2024-01-30T14:19:29;17.35;;;9.48;;
65533;SDS011;53640;55.838;37.184;2024-01-30T14:21:56;19.35;;;10.50;;
65533;SDS011;53640;55.838;37.184;2024-01-30T14:24:24;22.98;;;12.15;;
65533;SDS011;53640;55.838;37.184;2024-01-30T14:26:57;23.73;;;11.82;;
65533;SDS011;53640;55.838;37.184;2024-01-30T14:29:25;20.35;;;11.10;;
65533;SDS011;53640;55.838;37.184;2024-01-30T14:31:57;18.42;;;10.13;;
65533;SDS011;53640;55.838;37.184;2024-01-30T14:34:28;19.67;;;11.05;;
65533;SDS011;53640;55.838;37.184;2024-01-30T14:36:55;19.25;;;10.20;;
65533;SDS011;53640;55.838;37.184;2024-01-30T14:39:25;19.23;;;9.63;;
65533;SDS011;53640;55.838;37.184;2024-01-30T14:41:52;18.30;;;9.30;;
65533;SDS011;53640;55.838;37.184;2024-01-30T14:44:20;20.85;;;10.38;;
65533;SDS011;53640;55.838;37.184;2024-01-30T14:46:52;23.10;;;11.02;;
65533;SDS011;53640;55.838;37.184;2024-01-30T14:49:24;20.58;;;10.07;;
65533;SDS011;53640;55.838;37.184;2024-01-30T14:51:50;20.83;;;9.93;;
65533;SDS011;53640;55.838;37.184;2024-01-30T14:54:19;26.17;;;11.85;;
65533;SDS011;53640;55.838;37.184;2024-01-30T14:57:00;17.65;;;10.13;;
65533;SDS011;53640;55.838;37.184;2024-01-30T14:59:31;21.13;;;10.07;;
65533;SDS011;53640;55.838;37.184;2024-01-30T15:01:58;22.63;;;10.80;;